»·PEaware :: N3021E KSMX-KBFL

N3021E :: KSMX-KBFL

FLIGHT INFORMATION

Flight Status: Arrived
Operator: Privately registered:
United States
More flights under this callsign
Pilot: Travis F. (42844)
Aircraft: CESSNA 172 SKYHAWK
(C172)
More flights by this aircraft type
Origin: KSMX Santa Maria Pub/Capt Hancock
United States
Destination: KBFL Meadows
United States
More flights between these airports :: More routes between these airports
Route:
File this flight plan on PilotEdge
Remarks:
Altitude:
(Current/Filed)
5,500ft
Speed:
(Current/Filed)
100kts
Departed: 24-Jan-23 08:11 PM
Arrived: 24-Jan-23 08:52 PM
Distance/Time
Traveled:
76nm/0:41
Distance/Time
To Go:
Arrived

Flight Plot

Page will automatically refresh every two minutes.


Map Options




Map Legend


Flown Route
Filed Route
Departure Airport
Arrival Airport
Navaid (VOR, NDB)
Fix

Horizontal Profiles

Position Reports

Time Latitude Longitude Heading Altitude Ground
Speed
24-Jan-23 20:01 34.896698 -120.446044 43 255ft 0kts
24-Jan-23 20:02 34.896698 -120.446044 43 255ft 0kts
24-Jan-23 20:03 34.896698 -120.446044 43 255ft 0kts
24-Jan-23 20:04 34.896698 -120.446044 42 255ft 0kts
24-Jan-23 20:05 34.896698 -120.446044 42 255ft 0kts
24-Jan-23 20:06 34.896737 -120.445891 121 255ft 0kts
24-Jan-23 20:07 34.895116 -120.445021 192 260ft 7kts
24-Jan-23 20:08 34.894152 -120.445696 179 262ft 0kts
24-Jan-23 20:09 34.893230 -120.446514 315 263ft 11kts
24-Jan-23 20:10 34.906010 -120.459433 321 793ft 74kts
24-Jan-23 20:11 34.921178 -120.447865 54 1648ft 83kts
24-Jan-23 20:12 34.933793 -120.423091 59 2485ft 86kts
24-Jan-23 20:13 34.942389 -120.395980 70 3207ft 96kts
24-Jan-23 20:14 34.953359 -120.367656 57 3989ft 92kts
24-Jan-23 20:16 34.965522 -120.339387 66 4682ft 96kts
24-Jan-23 20:17 34.976388 -120.309887 68 5350ft 96kts
24-Jan-23 20:18 34.987944 -120.274667 68 5505ft 124kts
24-Jan-23 20:19 35.001646 -120.234823 62 5498ft 127kts
24-Jan-23 20:20 35.016138 -120.195766 60 5539ft 128kts
24-Jan-23 20:21 35.027752 -120.155090 68 5554ft 129kts
24-Jan-23 20:22 35.044632 -120.116538 56 5531ft 129kts
24-Jan-23 20:23 35.064605 -120.080213 59 5481ft 129kts
24-Jan-23 20:24 35.080755 -120.041133 63 5456ft 128kts
24-Jan-23 20:25 35.096728 -120.002310 61 5452ft 128kts
24-Jan-23 20:26 35.113711 -119.963821 65 5440ft 129kts
24-Jan-23 20:27 35.129196 -119.924447 62 5429ft 128kts
24-Jan-23 20:28 35.143170 -119.884050 68 5402ft 128kts
24-Jan-23 20:29 35.157391 -119.844125 61 5386ft 128kts
24-Jan-23 20:30 35.169841 -119.803441 70 5395ft 127kts
24-Jan-23 20:31 35.180847 -119.762221 71 5424ft 127kts
24-Jan-23 20:32 35.194323 -119.722217 64 5442ft 127kts
24-Jan-23 20:33 35.208018 -119.682017 66 5443ft 128kts
24-Jan-23 20:34 35.221652 -119.642029 65 5438ft 128kts
24-Jan-23 20:35 35.236936 -119.603034 65 5465ft 127kts
24-Jan-23 20:36 35.250553 -119.563021 62 5502ft 127kts
24-Jan-23 20:37 35.263670 -119.522937 71 5513ft 128kts
24-Jan-23 20:38 35.278551 -119.483580 57 5511ft 128kts
24-Jan-23 20:39 35.295052 -119.444332 63 5374ft 135kts
24-Jan-23 20:40 35.307978 -119.402782 71 5330ft 131kts
24-Jan-23 20:41 35.320239 -119.360686 67 5226ft 132kts
24-Jan-23 20:41 35.333359 -119.327144 59 5172ft 130kts
24-Jan-23 20:43 35.354248 -119.282182 59 4974ft 127kts
24-Jan-23 20:44 35.366801 -119.241643 74 4073ft 127kts
24-Jan-23 20:45 35.377440 -119.200723 77 3130ft 126kts
24-Jan-23 20:46 35.389428 -119.161232 62 2235ft 123kts
24-Jan-23 20:46 35.400879 -119.129771 69 1548ft 118kts
24-Jan-23 20:47 35.408962 -119.092004 84 1260ft 105kts
24-Jan-23 20:49 35.409151 -119.047985 104 1068ft 99kts
24-Jan-23 20:50 35.421321 -119.041267 311 761ft 83kts
24-Jan-23 20:50 35.434488 -119.056986 314 495ft 61kts
24-Jan-23 20:51 35.436354 -119.057441 78 491ft 0kts
24-Jan-23 20:52 35.434148 -119.054329 134 485ft 21kts
24-Jan-23 20:53 35.431567 -119.049908 88 481ft 5kts
24-Jan-23 20:55 35.431397 -119.049391 120 480ft 0kts
24-Jan-23 20:55 35.431397 -119.049391 120 480ft 0kts

Navigation Log

Ident Type
Flight plan parsing failed, navigation log unavailable